createdAt,value
2017-06-27T00:01:47.533Z,81.60
2017-06-27T00:04:16.016Z,82.10
2017-06-27T00:06:44.542Z,82.20
2017-06-27T01:33:24.005Z,86.60
2017-06-27T01:35:52.832Z,86.40
2017-06-27T01:38:21.319Z,86.80
2017-06-27T01:40:49.785Z,87.40
2017-06-27T01:43:18.273Z,87.40
2017-06-27T01:45:46.769Z,87.40
2017-06-27T01:48:15.314Z,86.80
2017-06-27T01:50:43.840Z,86.40
2017-06-27T01:53:12.312Z,86.80
2017-06-27T01:55:40.895Z,88.40
2017-06-27T01:58:09.344Z,88.10
2017-06-27T02:00:38.520Z,88.00
2017-06-27T02:03:07.058Z,88.00
2017-06-27T02:05:35.641Z,87.90
2017-06-27T02:08:04.132Z,87.40
2017-06-27T02:10:32.772Z,87.70
2017-06-27T02:13:01.298Z,88.00
2017-06-27T02:15:29.777Z,87.10
2017-06-27T02:17:58.362Z,87.10
2017-06-27T02:20:26.821Z,86.90
2017-06-27T02:22:55.397Z,87.10
2017-06-27T02:28:03.345Z,87.80
2017-06-27T02:30:31.976Z,87.80
2017-06-27T02:33:00.554Z,88.30
2017-06-27T02:35:29.027Z,88.40
2017-06-27T02:37:57.908Z,88.40
2017-06-27T02:40:26.592Z,88.20
2017-06-27T02:42:55.228Z,88.30
2017-06-27T02:45:23.695Z,88.50
2017-06-27T02:47:52.402Z,89.00
2017-06-27T02:50:21.195Z,88.50
2017-06-27T02:52:50.041Z,88.80
2017-06-27T02:55:18.474Z,89.80
2017-06-27T02:57:48.004Z,90.20
2017-06-27T03:00:16.474Z,90.10
2017-06-27T03:02:44.980Z,90.10
2017-06-27T03:05:13.469Z,90.40
2017-06-27T03:07:41.944Z,90.60
2017-06-27T03:10:10.572Z,90.70
2017-06-27T03:12:39.047Z,90.50
2017-06-27T03:15:07.801Z,90.30
2017-06-27T03:17:36.295Z,90.20
2017-06-27T03:20:05.077Z,90.10
2017-06-27T03:22:33.708Z,90.10
2017-06-27T03:25:02.360Z,90.00
2017-06-27T03:27:31.010Z,90.60
2017-06-27T03:29:59.521Z,90.80
2017-06-27T03:32:27.960Z,90.50
2017-06-27T03:34:57.173Z,90.50
2017-06-27T03:37:25.920Z,90.50
2017-06-27T03:39:54.445Z,90.30
2017-06-27T03:42:22.888Z,90.50
2017-06-27T03:44:51.411Z,90.60
2017-06-27T03:47:19.912Z,90.20
2017-06-27T03:49:48.432Z,90.50
2017-06-27T03:52:16.884Z,90.30
2017-06-27T03:54:45.335Z,90.40
2017-06-27T03:57:13.962Z,90.30
2017-06-27T03:59:42.438Z,90.30
2017-06-27T04:02:11.120Z,90.50
2017-06-27T04:04:39.698Z,89.70
2017-06-27T04:07:08.146Z,89.10
2017-06-27T04:09:36.951Z,89.00
2017-06-27T04:12:05.623Z,88.30
2017-06-27T04:14:34.941Z,87.70
2017-06-27T04:17:03.832Z,87.70
2017-06-27T04:19:32.518Z,87.40
2017-06-27T04:22:01.208Z,87.30
2017-06-27T04:24:30.098Z,86.60
2017-06-27T04:26:58.785Z,86.20
2017-06-27T04:29:27.676Z,85.60
2017-06-27T04:31:56.364Z,87.00
2017-06-27T04:34:24.876Z,85.40
2017-06-27T04:36:53.332Z,84.10
2017-06-27T04:39:22.222Z,85.60
2017-06-27T04:41:50.910Z,86.60
2017-06-27T04:44:19.608Z,85.00
2017-06-27T04:46:48.069Z,85.50
2017-06-27T04:49:17.261Z,84.60
2017-06-27T04:51:45.744Z,84.60
2017-06-27T04:54:14.540Z,83.90
2017-06-27T04:56:43.754Z,82.00
2017-06-27T04:59:12.209Z,81.90
2017-06-27T05:01:40.819Z,80.90
2017-06-27T05:04:09.324Z,79.20
2017-06-27T05:06:37.799Z,77.80
2017-06-27T05:09:06.393Z,76.70
2017-06-27T05:11:34.961Z,74.50
2017-06-27T05:14:03.380Z,74.30
2017-06-27T05:16:32.044Z,72.30
2017-06-27T05:19:00.609Z,71.20
2017-06-27T05:21:29.225Z,70.10
2017-06-27T05:23:58.031Z,69.20
2017-06-27T05:26:26.792Z,68.70
2017-06-27T05:28:55.257Z,68.90
2017-06-27T05:31:23.732Z,69.20
2017-06-27T05:33:52.280Z,68.30
2017-06-27T05:36:20.771Z,68.30
2017-06-27T05:38:49.256Z,69.20
2017-06-27T05:41:17.760Z,68.70
2017-06-27T05:43:46.224Z,69.70
2017-06-27T05:46:15.956Z,69.90
2017-06-27T05:48:44.518Z,69.80
2017-06-27T05:51:13.017Z,71.00
2017-06-27T05:53:41.537Z,72.80
2017-06-27T05:56:10.729Z,71.30
2017-06-27T05:58:39.184Z,71.30
2017-06-27T06:01:07.661Z,72.10
2017-06-27T06:03:36.125Z,70.30
2017-06-27T06:06:04.776Z,67.80
2017-06-27T06:08:33.245Z,66.30
2017-06-27T06:11:01.838Z,66.40
2017-06-27T06:13:30.625Z,69.50
2017-06-27T06:15:59.116Z,73.10
2017-06-27T06:18:27.657Z,71.70
2017-06-27T06:20:56.124Z,72.60
2017-06-27T06:23:25.346Z,68.80
2017-06-27T06:26:12.072Z,65.50
2017-06-27T06:28:40.517Z,65.40
2017-06-27T06:31:09.228Z,67.40
2017-06-27T06:33:37.789Z,66.30
2017-06-27T06:36:07.053Z,68.70
2017-06-27T06:38:35.791Z,68.70
2017-06-27T06:41:04.406Z,67.20
2017-06-27T06:43:32.874Z,67.30
2017-06-27T06:46:01.489Z,60.80
2017-06-27T06:48:30.067Z,63.90
2017-06-27T06:50:58.505Z,65.20
2017-06-27T06:53:27.112Z,64.30
2017-06-27T06:55:55.618Z,63.50
2017-06-27T06:58:24.098Z,63.40
2017-06-27T07:00:52.564Z,61.40
2017-06-27T07:03:21.024Z,62.60
2017-06-27T07:05:49.924Z,60.00
2017-06-27T07:08:18.849Z,59.90
2017-06-27T07:10:48.609Z,54.20
2017-06-27T07:13:17.969Z,50.90
2017-06-27T07:15:46.583Z,51.10
2017-06-27T07:18:15.156Z,51.60
2017-06-27T07:20:43.645Z,52.10
2017-06-27T07:23:12.222Z,50.90
2017-06-27T07:25:41.945Z,52.10
2017-06-27T07:28:11.296Z,52.60
2017-06-27T07:30:40.090Z,52.80
2017-06-27T07:33:08.972Z,50.90
2017-06-27T07:35:37.487Z,49.00
2017-06-27T07:38:05.999Z,48.80
2017-06-27T07:40:35.254Z,43.20
2017-06-27T07:43:03.772Z,43.10
2017-06-27T07:45:32.755Z,41.90
2017-06-27T07:48:00.604Z,43.50
2017-06-27T07:50:28.505Z,44.10
2017-06-27T07:52:56.440Z,43.50
2017-06-27T07:55:24.373Z,41.90
2017-06-27T07:57:52.252Z,42.90
2017-06-27T08:00:20.138Z,41.10
2017-06-27T08:02:48.796Z,40.50
2017-06-27T08:16:42.697Z,40.30
2017-06-27T08:19:11.161Z,39.80
2017-06-27T08:21:39.720Z,45.70
2017-06-27T08:24:08.326Z,43.80
2017-06-27T08:26:37.208Z,47.10
2017-06-27T08:29:05.761Z,46.50
2017-06-27T08:31:35.027Z,42.00
2017-06-27T08:34:03.509Z,42.00
2017-06-27T08:36:31.963Z,42.60
2017-06-27T08:39:00.529Z,39.70
2017-06-27T08:41:29.184Z,41.40
2017-06-27T08:43:57.667Z,42.00
2017-06-27T08:46:26.176Z,36.70
2017-06-27T08:48:54.645Z,34.50
2017-06-27T08:51:23.981Z,34.30
2017-06-27T08:53:52.465Z,34.30
2017-06-27T08:56:20.924Z,34.10
2017-06-27T08:58:49.405Z,38.60
2017-06-27T09:01:17.844Z,40.00
2017-06-27T09:03:46.549Z,40.70
2017-06-27T09:06:15.252Z,41.40
2017-06-27T09:08:44.571Z,37.90
2017-06-27T09:11:13.009Z,37.90
2017-06-27T09:13:41.652Z,36.30
2017-06-27T09:16:10.128Z,35.60
2017-06-27T09:18:38.669Z,35.00
2017-06-27T09:21:07.856Z,33.70
2017-06-27T09:23:36.513Z,33.00
2017-06-27T09:26:05.169Z,35.10
2017-06-27T09:28:33.855Z,34.20
2017-06-27T09:31:02.316Z,33.90
2017-06-27T09:33:31.485Z,36.70
2017-06-27T09:36:00.356Z,36.30
2017-06-27T09:38:28.812Z,38.20
2017-06-27T09:40:57.252Z,34.70
2017-06-27T09:43:25.740Z,32.90
2017-06-27T09:45:53.573Z,32.50
2017-06-27T09:48:21.458Z,32.80
2017-06-27T09:50:49.292Z,32.40
2017-06-27T09:53:17.136Z,34.60
2017-06-27T09:55:44.965Z,34.90
2017-06-27T09:58:13.553Z,32.50
2017-06-27T10:00:41.401Z,36.50
2017-06-27T10:03:09.929Z,33.50
2017-06-27T10:05:38.530Z,30.80
2017-06-27T10:08:06.623Z,30.30
2017-06-27T10:10:34.444Z,34.80
2017-06-27T10:13:02.885Z,32.30
2017-06-27T10:15:31.360Z,33.60
2017-06-27T10:17:59.840Z,33.90
2017-06-27T10:20:28.299Z,33.20
2017-06-27T10:22:56.777Z,32.80
2017-06-27T10:25:26.986Z,33.60
2017-06-27T10:27:55.452Z,32.60
2017-06-27T10:30:23.921Z,37.20
2017-06-27T10:32:52.400Z,38.00
2017-06-27T10:35:21.010Z,34.50
2017-06-27T10:37:49.588Z,34.30
2017-06-27T10:40:19.120Z,33.10
2017-06-27T10:42:48.568Z,33.20
2017-06-27T10:45:17.736Z,34.30
2017-06-27T10:47:46.613Z,34.30
2017-06-27T10:50:15.656Z,33.30
2017-06-27T10:52:44.639Z,33.70
2017-06-27T10:55:13.438Z,38.40
2017-06-27T10:57:42.389Z,35.10
2017-06-27T11:00:11.274Z,37.70
2017-06-27T11:02:39.917Z,37.80
2017-06-27T11:05:08.471Z,33.60
2017-06-27T11:07:37.046Z,34.50
2017-06-27T11:10:05.925Z,35.10
2017-06-27T11:12:34.463Z,31.00
2017-06-27T11:15:03.036Z,32.70
2017-06-27T11:17:31.516Z,33.10
2017-06-27T11:20:00.378Z,32.30
2017-06-27T11:22:28.846Z,34.20
2017-06-27T11:24:57.528Z,34.90
2017-06-27T11:27:26.064Z,36.40
2017-06-27T11:29:54.810Z,37.10
2017-06-27T11:32:23.373Z,40.20
2017-06-27T11:34:52.581Z,36.00
2017-06-27T11:37:21.388Z,36.00
2017-06-27T11:39:49.999Z,38.50
2017-06-27T11:42:18.460Z,37.10
2017-06-27T11:44:46.892Z,35.20
2017-06-27T11:47:15.712Z,35.70
2017-06-27T11:49:44.224Z,37.30
2017-06-27T11:52:12.678Z,41.50
2017-06-27T11:54:42.113Z,37.80
2017-06-27T11:57:10.921Z,37.80
2017-06-27T11:59:39.733Z,36.80
2017-06-27T12:02:11.729Z,36.50
2017-06-27T12:04:43.242Z,36.60
2017-06-27T12:07:20.793Z,35.50
2017-06-27T12:09:49.808Z,37.80
2017-06-27T12:12:18.748Z,37.10
2017-06-27T12:14:48.877Z,37.80
2017-06-27T12:17:17.862Z,37.40
2017-06-27T12:19:47.965Z,36.20
2017-06-27T12:22:23.573Z,38.00
2017-06-27T12:24:53.390Z,38.10
2017-06-27T12:27:25.850Z,36.90
2017-06-27T12:29:56.082Z,38.00
2017-06-27T12:32:57.026Z,36.50
2017-06-27T12:35:25.737Z,35.20
2017-06-27T12:40:41.807Z,34.60
2017-06-27T12:43:11.919Z,34.60
2017-06-27T12:45:41.269Z,32.90
2017-06-27T12:48:11.047Z,33.10
2017-06-27T12:50:41.473Z,35.40
2017-06-27T12:53:10.912Z,35.50
2017-06-27T12:55:43.707Z,33.10
2017-06-27T12:58:13.230Z,33.20
2017-06-27T13:00:42.294Z,35.10
2017-06-27T13:03:11.546Z,34.60
2017-06-27T13:05:41.642Z,31.80
2017-06-27T13:08:10.808Z,31.80
2017-06-27T13:10:40.848Z,32.10
2017-06-27T13:13:11.232Z,34.00
2017-06-27T13:15:45.013Z,33.90
2017-06-27T13:18:13.061Z,36.00
2017-06-27T13:20:41.926Z,32.40
2017-06-27T13:23:11.086Z,35.70
2017-06-27T13:25:39.752Z,37.10
2017-06-27T13:28:09.683Z,38.10
2017-06-27T13:30:38.999Z,38.00
2017-06-27T13:33:08.461Z,36.80
2017-06-27T13:35:37.692Z,37.00
2017-06-27T13:38:07.305Z,37.80
2017-06-27T13:40:36.316Z,37.60
2017-06-27T13:43:05.249Z,39.10
2017-06-27T13:45:36.934Z,42.00
2017-06-27T13:48:08.425Z,43.40
2017-06-27T13:50:38.160Z,40.00
2017-06-27T13:53:07.940Z,39.60
2017-06-27T13:55:37.652Z,39.60
2017-06-27T13:58:07.304Z,40.60
2017-06-27T14:00:37.130Z,42.50
2017-06-27T14:03:06.430Z,43.00
2017-06-27T14:05:36.553Z,41.40
2017-06-27T14:08:06.130Z,41.00
2017-06-27T14:10:35.185Z,40.70
2017-06-27T14:13:03.820Z,43.20
2017-06-27T14:15:33.526Z,47.40
2017-06-27T14:18:03.081Z,45.80
2017-06-27T14:20:34.908Z,43.00
2017-06-27T14:23:06.508Z,45.60
2017-06-27T14:25:34.974Z,43.90
2017-06-27T14:28:05.203Z,44.30
2017-06-27T14:30:37.221Z,44.80
2017-06-27T14:33:13.088Z,41.90
2017-06-27T14:35:42.076Z,41.50
2017-06-27T14:38:10.583Z,43.20
2017-06-27T14:40:39.903Z,43.70
2017-06-27T14:43:08.381Z,43.60
2017-06-27T14:45:36.838Z,44.90
2017-06-27T14:48:05.339Z,45.10
2017-06-27T14:50:34.625Z,47.60
2017-06-27T14:53:03.995Z,45.50
2017-06-27T14:55:32.498Z,45.80
2017-06-27T14:58:01.097Z,44.80
2017-06-27T15:00:30.424Z,44.40
2017-06-27T15:02:59.481Z,44.60
2017-06-27T15:05:27.989Z,46.20
2017-06-27T15:07:57.317Z,45.90
2017-06-27T15:10:25.855Z,45.70
2017-06-27T15:12:54.429Z,45.80
2017-06-27T15:15:22.919Z,45.70
2017-06-27T15:17:51.418Z,48.40
2017-06-27T15:20:20.863Z,48.30
2017-06-27T15:22:49.494Z,47.40
2017-06-27T15:25:17.998Z,48.10
2017-06-27T15:27:48.843Z,47.00
2017-06-27T15:30:18.103Z,47.90
2017-06-27T15:32:47.397Z,45.40
2017-06-27T15:35:16.077Z,45.50
2017-06-27T15:37:44.634Z,46.00
2017-06-27T15:40:14.282Z,46.20
2017-06-27T15:42:47.380Z,48.50
2017-06-27T15:45:15.896Z,48.40
2017-06-27T15:47:44.407Z,47.90
2017-06-27T15:50:12.903Z,47.80
2017-06-27T15:52:41.776Z,48.60
2017-06-27T15:55:10.459Z,48.70
2017-06-27T15:57:49.394Z,50.70
2017-06-27T16:00:18.177Z,48.90
2017-06-27T16:02:46.693Z,50.40
2017-06-27T16:05:15.245Z,50.90
2017-06-27T16:07:43.830Z,52.20
2017-06-27T16:10:12.514Z,50.50
2017-06-27T16:12:41.150Z,52.10
2017-06-27T16:15:09.698Z,49.80
2017-06-27T16:17:38.226Z,49.20
2017-06-27T16:20:06.878Z,50.50
2017-06-27T16:22:35.543Z,50.10
2017-06-27T16:25:04.234Z,50.60
2017-06-27T16:27:32.844Z,50.40
2017-06-27T16:30:01.336Z,49.60
2017-06-27T16:32:29.852Z,49.60
2017-06-27T16:34:58.467Z,48.50
2017-06-27T16:37:27.741Z,48.90
2017-06-27T16:39:56.246Z,50.70
2017-06-27T16:42:24.857Z,50.20
2017-06-27T16:44:53.428Z,50.70
2017-06-27T16:47:21.938Z,51.70
2017-06-27T16:49:50.689Z,50.10
2017-06-27T16:52:19.272Z,50.30
2017-06-27T16:54:47.773Z,50.20
2017-06-27T16:57:16.294Z,50.10
2017-06-27T16:59:44.865Z,51.20
2017-06-27T17:02:13.431Z,50.00
2017-06-27T17:04:42.197Z,50.80
2017-06-27T17:07:11.036Z,52.30
2017-06-27T17:09:40.184Z,51.20
2017-06-27T17:12:08.730Z,52.60
2017-06-27T17:14:37.968Z,51.40
2017-06-27T17:17:06.481Z,51.50
2017-06-27T17:19:35.153Z,51.80
2017-06-27T17:22:03.871Z,52.70
2017-06-27T17:24:34.530Z,53.10
2017-06-27T17:27:04.555Z,52.20
2017-06-27T17:29:33.101Z,52.40
2017-06-27T17:32:01.668Z,52.30
2017-06-27T17:34:30.421Z,52.80
2017-06-27T17:36:58.919Z,52.70
2017-06-27T17:39:27.730Z,54.00
2017-06-27T17:41:56.303Z,53.80
2017-06-27T17:44:24.993Z,53.40
2017-06-27T17:46:53.972Z,53.80
2017-06-27T17:49:23.068Z,53.50
2017-06-27T17:51:52.369Z,52.70
2017-06-27T17:54:21.549Z,53.90
2017-06-27T17:56:50.138Z,54.40
2017-06-27T17:59:18.698Z,54.80
2017-06-27T18:01:48.256Z,54.80
2017-06-27T18:04:17.551Z,54.50
2017-06-27T18:06:47.262Z,55.40
2017-06-27T18:09:16.766Z,54.60
2017-06-27T18:11:46.269Z,54.80
2017-06-27T18:14:16.636Z,54.70
2017-06-27T18:16:46.717Z,54.70
2017-06-27T18:19:16.222Z,55.60
2017-06-27T18:21:45.453Z,56.20
2017-06-27T18:24:15.953Z,55.70
2017-06-27T18:26:46.069Z,55.60
2017-06-27T18:29:15.170Z,55.90
2017-06-27T18:31:44.506Z,55.50
2017-06-27T18:34:13.794Z,56.40
2017-06-27T18:36:42.981Z,56.10
2017-06-27T18:39:12.581Z,56.90
2017-06-27T18:41:42.609Z,57.00
2017-06-27T18:44:13.411Z,57.70
2017-06-27T18:46:42.846Z,56.60
2017-06-27T18:49:12.348Z,56.30
2017-06-27T18:51:42.319Z,57.60
2017-06-27T18:54:12.329Z,56.90
2017-06-27T18:56:41.610Z,56.60
2017-06-27T18:59:11.294Z,57.60
2017-06-27T19:01:40.716Z,57.50
2017-06-27T19:04:10.417Z,57.50
2017-06-27T19:06:39.831Z,57.70
2017-06-27T19:09:10.034Z,58.80
2017-06-27T19:11:39.170Z,58.80
2017-06-27T19:14:08.859Z,58.40
2017-06-27T19:16:39.001Z,58.10
2017-06-27T19:19:08.880Z,57.90
2017-06-27T19:21:38.219Z,57.90
2017-06-27T19:24:07.467Z,58.40
2017-06-27T19:26:36.679Z,57.70
2017-06-27T19:29:06.163Z,57.90
2017-06-27T19:31:35.579Z,57.50
2017-06-27T19:34:04.932Z,57.70
2017-06-27T19:36:34.167Z,59.00
2017-06-27T19:39:03.575Z,58.40
2017-06-27T19:41:33.678Z,58.00
2017-06-27T19:45:06.468Z,58.70
2017-06-27T19:47:35.709Z,59.00
2017-06-27T19:50:05.010Z,58.70
2017-06-27T19:52:33.882Z,58.40
2017-06-27T19:55:02.569Z,58.90
2017-06-27T19:57:31.418Z,58.90
2017-06-27T20:00:00.163Z,59.30
2017-06-27T20:02:29.572Z,59.60
2017-06-27T20:04:58.242Z,60.50
2017-06-27T20:07:27.152Z,59.70
2017-06-27T20:09:55.757Z,59.80
2017-06-27T20:12:25.246Z,60.40
2017-06-27T20:14:54.032Z,60.90
2017-06-27T20:17:22.901Z,60.60
2017-06-27T20:19:51.788Z,60.40
2017-06-27T20:22:20.548Z,61.20
2017-06-27T20:24:49.288Z,61.90
2017-06-27T20:27:18.081Z,61.10
2017-06-27T20:29:47.141Z,60.80
2017-06-27T20:32:15.769Z,61.10
2017-06-27T20:34:44.703Z,61.50
2017-06-27T20:37:13.328Z,62.00
2017-06-27T20:39:42.321Z,62.00
2017-06-27T20:42:11.124Z,63.20
2017-06-27T20:44:40.012Z,62.20
2017-06-27T20:47:08.725Z,62.20
2017-06-27T20:49:37.798Z,62.30
2017-06-27T20:52:06.396Z,63.10
2017-06-27T20:54:35.722Z,63.10
2017-06-27T20:57:05.190Z,65.30
2017-06-27T20:59:34.073Z,66.50
2017-06-27T21:02:03.123Z,66.60
2017-06-27T21:04:31.921Z,68.70
2017-06-27T21:07:00.763Z,69.60
2017-06-27T21:09:29.790Z,70.10
2017-06-27T21:11:58.762Z,70.50
2017-06-27T21:14:27.933Z,70.20
2017-06-27T21:16:56.680Z,70.00
2017-06-27T21:19:25.805Z,70.10
2017-06-27T21:21:54.353Z,69.90
2017-06-27T21:24:23.238Z,71.30
2017-06-27T21:26:51.835Z,70.80
2017-06-27T21:29:20.709Z,70.10
2017-06-27T21:31:49.545Z,71.10
2017-06-27T21:34:18.114Z,70.70
2017-06-27T21:36:46.851Z,71.20
2017-06-27T21:39:16.054Z,72.10
2017-06-27T21:41:44.833Z,72.30
2017-06-27T21:44:13.930Z,71.80
2017-06-27T21:46:42.621Z,74.10
2017-06-27T21:49:11.229Z,73.00
2017-06-27T21:51:39.950Z,73.70
2017-06-27T21:54:08.708Z,74.00
2017-06-27T21:56:37.529Z,74.50
2017-06-27T21:59:06.352Z,75.10
2017-06-27T22:01:35.336Z,75.40
2017-06-27T22:04:05.390Z,75.00
2017-06-27T22:06:34.477Z,75.60
2017-06-27T22:09:03.361Z,76.60
2017-06-27T22:11:32.172Z,76.50
2017-06-27T22:14:00.972Z,75.00
2017-06-27T22:16:29.644Z,77.30
2017-06-27T22:18:58.895Z,78.00
2017-06-27T22:21:28.130Z,78.10
2017-06-27T22:23:56.637Z,77.90
2017-06-27T22:26:25.132Z,78.50
2017-06-27T22:28:54.344Z,79.00
2017-06-27T22:31:22.782Z,79.00
2017-06-27T22:33:51.622Z,79.90
2017-06-27T22:36:20.377Z,79.30
2017-06-27T22:38:48.964Z,79.00
2017-06-27T22:41:17.761Z,79.30
2017-06-27T22:43:46.347Z,78.80
2017-06-27T22:46:14.864Z,79.60
2017-06-27T22:48:44.617Z,78.30
2017-06-27T22:51:13.228Z,78.20
2017-06-27T22:53:41.981Z,78.60
2017-06-27T22:56:10.669Z,77.90
2017-06-27T22:58:39.128Z,77.50
2017-06-27T23:01:08.357Z,78.00
2017-06-27T23:03:37.015Z,78.00
2017-06-27T23:06:05.640Z,77.70
2017-06-27T23:08:34.103Z,77.50
2017-06-27T23:11:02.574Z,77.60
2017-06-27T23:13:31.082Z,77.70
2017-06-27T23:15:59.660Z,77.60
2017-06-27T23:18:28.158Z,78.20
2017-06-27T23:20:56.613Z,77.10
2017-06-27T23:23:25.436Z,77.10
2017-06-27T23:25:53.908Z,76.50
2017-06-27T23:28:22.454Z,76.60
2017-06-27T23:30:51.018Z,77.20
2017-06-27T23:33:19.523Z,77.50
2017-06-27T23:35:48.845Z,76.60
2017-06-27T23:38:17.352Z,76.60
2017-06-27T23:40:45.873Z,76.50
2017-06-27T23:43:14.423Z,77.20
2017-06-27T23:45:42.899Z,77.10
2017-06-27T23:48:11.401Z,76.60
2017-06-27T23:50:39.905Z,76.60
2017-06-27T23:53:08.535Z,76.70
2017-06-27T23:55:37.046Z,77.20
2017-06-27T23:58:05.541Z,77.50
